Portada
METAR-TAF:

METAR-TAF

Aeroports :

Rarotonga, Illes Cook

latitud: 21-12S, longitud: 159-49W, altitud: 7 m

Observació

L'informe es va fer fa 14 minuts, a les 16:00 UTC
Vent 5 kt del Est/Sud-Est, variant entre Est/Nord-Est i Sud-Est
Temperatura 22°C
Humitat 73%
Pressió 1016 hPa
Visibilitat 10 km o més

METAR: NCRG 261600Z AUTO 11005KT 070V140 9999 NCD 22/17 Q1016

Hora: 06:14 (16:14 UTC)

Pronòstic

L'informe es va fer fa 5 hores i 5 minuts, a les 11:09 UTC
Pronòstic vàlid del 26 a les 12 UTC al 27 a les 12 UTC
Vent 7 kt del Est/Sud-Est
Visibilitat 10 km o més
Núvols disperses a una alçada de 3500 ft
Cel ennuvolat a una alçada de 4000 ft

TAF: NCRG 261109Z 2612/2712 11007KT 9999 SCT035 BKN040

Observacions i pronòstics meteorològics de més de 4000 aeroports (METAR i TAF).

Les estacions disponibles són els punts grocs i vermells al mapa.

Posi el ratolí al punt desitjat per veure el nom de l'estació.

Feu clic per veure les observacions i els pronòstics meteorològics.

Per canviar el mapa: feu clic els botons verds amb una creu de color negre per apropar; al botó verd amb un guió per allunyar la imatge; o en les fletxes verdes per a mapes adjacents.


METAR-TAF: